createdAt,value
2022-12-02T00:01:35.525Z,8.43
2022-12-02T00:04:14.162Z,10.30
2022-12-02T00:06:45.521Z,10.70
2022-12-02T00:09:20.290Z,9.87
2022-12-02T00:11:51.177Z,9.70
2022-12-02T00:14:26.385Z,9.87
2022-12-02T00:16:57.654Z,10.00
2022-12-02T00:19:28.190Z,9.97
2022-12-02T00:21:58.824Z,10.23
2022-12-02T00:24:29.454Z,10.67
2022-12-02T00:27:00.030Z,10.97
2022-12-02T00:29:30.714Z,11.27
2022-12-02T00:32:01.300Z,9.83
2022-12-02T00:34:31.978Z,11.30
2022-12-02T00:37:02.537Z,10.27
2022-12-02T00:39:33.114Z,11.67
2022-12-02T00:42:03.713Z,10.93
2022-12-02T00:44:52.041Z,11.30
2022-12-02T00:47:23.156Z,10.83
2022-12-02T00:49:53.743Z,10.83
2022-12-02T00:52:24.274Z,11.43
2022-12-02T00:54:54.853Z,10.63
2022-12-02T00:57:25.435Z,11.60
2022-12-02T00:59:56.066Z,10.90
2022-12-02T01:02:26.716Z,10.67
2022-12-02T01:04:57.367Z,9.60
2022-12-02T01:07:28.155Z,9.53
2022-12-02T01:09:58.698Z,9.80
2022-12-02T01:12:29.266Z,9.90
2022-12-02T01:14:59.948Z,10.07
2022-12-02T01:17:30.485Z,10.33
2022-12-02T01:20:01.019Z,10.90
2022-12-02T01:22:30.832Z,10.07
2022-12-02T01:25:01.384Z,11.13
2022-12-02T01:27:32.083Z,10.33
2022-12-02T01:30:02.616Z,10.90
2022-12-02T01:32:33.153Z,9.60
2022-12-02T01:35:03.735Z,11.13
2022-12-02T01:37:34.308Z,10.97
2022-12-02T01:40:05.018Z,11.17
2022-12-02T01:42:35.880Z,9.83
2022-12-02T01:45:08.759Z,10.77
2022-12-02T01:47:40.314Z,11.53
2022-12-02T01:50:14.702Z,10.63
2022-12-02T01:52:45.925Z,11.13
2022-12-02T01:55:19.832Z,10.60
2022-12-02T01:57:52.169Z,11.00
2022-12-02T02:00:23.822Z,10.77
2022-12-02T02:02:54.456Z,11.03
2022-12-02T02:05:27.969Z,10.93
2022-12-02T02:08:01.155Z,10.43
2022-12-02T02:10:32.091Z,10.50
2022-12-02T02:13:03.629Z,11.00
2022-12-02T02:15:34.487Z,11.13
2022-12-02T02:18:05.715Z,10.30
2022-12-02T02:20:38.910Z,11.67
2022-12-02T02:26:13.304Z,11.47
2022-12-02T02:28:43.938Z,11.47
2022-12-02T02:31:14.588Z,11.23
2022-12-02T02:33:45.439Z,11.63
2022-12-02T02:36:16.204Z,11.07
2022-12-02T02:38:48.819Z,12.10
2022-12-02T02:41:19.842Z,10.97
2022-12-02T02:43:50.752Z,11.57
2022-12-02T02:46:21.988Z,11.80
2022-12-02T02:48:53.074Z,11.57
2022-12-02T02:51:24.331Z,11.63
2022-12-02T02:53:54.889Z,12.00
2022-12-02T02:56:25.589Z,11.67
2022-12-02T02:58:56.374Z,11.27
2022-12-02T03:01:29.902Z,10.80
2022-12-02T03:04:03.515Z,9.87
2022-12-02T03:06:36.244Z,10.53
2022-12-02T03:09:08.988Z,11.67
2022-12-02T03:11:44.117Z,11.57
2022-12-02T03:14:16.104Z,11.63
2022-12-02T03:16:47.681Z,11.00
2022-12-02T03:19:20.358Z,11.47
2022-12-02T03:21:51.101Z,10.27
2022-12-02T03:24:21.989Z,9.97
2022-12-02T03:26:53.120Z,10.40
2022-12-02T03:29:23.718Z,10.50
2022-12-02T03:31:54.514Z,11.23
2022-12-02T03:34:25.223Z,11.57
2022-12-02T03:36:56.157Z,12.60
2022-12-02T03:39:27.311Z,12.00
2022-12-02T03:41:58.047Z,10.90
2022-12-02T03:44:28.690Z,11.00
2022-12-02T03:46:59.623Z,10.83
2022-12-02T03:49:30.511Z,10.23
2022-12-02T03:52:01.342Z,11.50
2022-12-02T03:54:32.015Z,13.00
2022-12-02T03:57:04.032Z,12.43
2022-12-02T03:59:34.827Z,12.80
2022-12-02T04:02:05.464Z,11.70
2022-12-02T04:04:36.163Z,11.23
2022-12-02T04:07:06.766Z,10.77
2022-12-02T04:09:37.339Z,11.33
2022-12-02T04:12:08.435Z,11.67
2022-12-02T04:14:39.014Z,11.57
2022-12-02T04:17:09.689Z,11.77
2022-12-02T04:19:40.732Z,10.87
2022-12-02T04:22:11.272Z,11.63
2022-12-02T04:24:41.852Z,13.57
2022-12-02T04:27:12.526Z,14.33
2022-12-02T04:29:43.374Z,12.30
2022-12-02T04:32:13.946Z,12.80
2022-12-02T04:34:45.648Z,13.43
2022-12-02T04:37:16.334Z,13.10
2022-12-02T04:39:46.879Z,12.63
2022-12-02T04:42:17.444Z,13.37
2022-12-02T04:44:48.302Z,13.67
2022-12-02T04:47:19.316Z,12.93
2022-12-02T04:49:49.864Z,13.63
2022-12-02T04:52:20.656Z,13.30
2022-12-02T04:54:51.479Z,12.73
2022-12-02T04:57:25.395Z,13.57
2022-12-02T04:59:54.396Z,13.20
2022-12-02T05:02:24.948Z,12.93
2022-12-02T05:04:55.972Z,12.30
2022-12-02T05:07:26.861Z,12.43
2022-12-02T05:09:57.695Z,13.63
2022-12-02T05:12:28.243Z,12.73
2022-12-02T05:14:58.884Z,13.03
2022-12-02T05:17:30.922Z,12.27
2022-12-02T05:20:01.462Z,12.30
2022-12-02T05:22:32.105Z,11.90
2022-12-02T05:25:02.735Z,12.07
2022-12-02T05:27:35.549Z,12.77
2022-12-02T05:30:08.062Z,12.50
2022-12-02T05:32:38.676Z,12.23
2022-12-02T05:35:10.337Z,12.77
2022-12-02T05:37:40.915Z,13.33
2022-12-02T05:40:13.443Z,11.73
2022-12-02T05:42:44.514Z,13.53
2022-12-02T05:45:21.933Z,13.10
2022-12-02T05:47:54.659Z,12.63
2022-12-02T05:50:25.789Z,13.73
2022-12-02T05:52:56.884Z,13.10
2022-12-02T05:55:27.514Z,13.27
2022-12-02T05:58:01.947Z,13.27
2022-12-02T06:00:33.743Z,13.03
2022-12-02T06:03:06.728Z,12.97
2022-12-02T06:05:40.616Z,13.03
2022-12-02T06:08:16.810Z,12.77
2022-12-02T06:10:50.543Z,13.17
2022-12-02T06:13:24.484Z,12.67
2022-12-02T06:15:55.767Z,13.30
2022-12-02T06:18:29.938Z,13.17
2022-12-02T06:21:03.215Z,13.43
2022-12-02T06:23:36.168Z,12.60
2022-12-02T06:26:07.120Z,12.30
2022-12-02T06:28:40.577Z,13.30
2022-12-02T06:31:15.870Z,12.67
2022-12-02T06:33:47.919Z,12.80
2022-12-02T06:39:01.478Z,13.60
2022-12-02T06:41:34.310Z,13.50
2022-12-02T06:44:39.694Z,13.73
2022-12-02T06:47:58.556Z,13.47
2022-12-02T06:50:42.993Z,13.10
2022-12-02T06:53:36.477Z,13.83
2022-12-02T06:56:18.273Z,13.07
2022-12-02T06:58:51.433Z,12.37
2022-12-02T07:01:38.976Z,13.40
2022-12-02T07:07:20.652Z,12.37
2022-12-02T07:09:55.309Z,13.87
2022-12-02T07:12:28.527Z,13.97
2022-12-02T07:15:00.853Z,13.30
2022-12-02T07:17:34.275Z,12.53
2022-12-02T07:20:11.377Z,12.63
2022-12-02T07:22:44.489Z,12.97
2022-12-02T07:25:32.735Z,13.90
2022-12-02T07:28:04.290Z,13.07
2022-12-02T07:30:37.830Z,14.10
2022-12-02T07:33:08.556Z,14.10
2022-12-02T07:35:39.480Z,13.83
2022-12-02T07:38:10.067Z,14.40
2022-12-02T07:40:42.450Z,13.60
2022-12-02T07:43:13.175Z,15.10
2022-12-02T07:45:44.014Z,14.33
2022-12-02T07:48:14.787Z,14.50
2022-12-02T07:50:45.494Z,12.67
2022-12-02T07:53:16.083Z,13.63
2022-12-02T07:55:46.701Z,13.40
2022-12-02T07:58:17.368Z,14.00
2022-12-02T08:00:47.947Z,14.63
2022-12-02T08:03:18.520Z,13.90
2022-12-02T08:05:49.085Z,15.23
2022-12-02T08:08:19.708Z,14.20
2022-12-02T08:10:50.303Z,14.83
2022-12-02T08:13:20.963Z,15.07
2022-12-02T08:15:54.237Z,13.27
2022-12-02T08:18:23.794Z,15.03
2022-12-02T08:20:54.349Z,13.73
2022-12-02T08:23:25.049Z,14.23
2022-12-02T08:25:55.819Z,14.03
2022-12-02T08:28:26.375Z,13.37
2022-12-02T08:30:57.036Z,14.33
2022-12-02T08:33:27.826Z,13.27
2022-12-02T08:35:58.467Z,14.73
2022-12-02T08:38:29.159Z,13.13
2022-12-02T08:40:59.787Z,13.83
2022-12-02T08:43:30.473Z,14.17
2022-12-02T08:46:01.185Z,14.70
2022-12-02T08:48:31.803Z,13.43
2022-12-02T08:51:03.578Z,15.80
2022-12-02T08:53:34.171Z,13.83
2022-12-02T08:56:04.977Z,13.17
2022-12-02T08:58:36.106Z,13.93
2022-12-02T09:01:07.756Z,14.57
2022-12-02T09:03:38.492Z,13.60
2022-12-02T09:06:10.477Z,14.03
2022-12-02T09:08:41.208Z,14.20
2022-12-02T09:11:12.330Z,13.17
2022-12-02T09:13:43.220Z,13.43
2022-12-02T09:16:14.005Z,12.73
2022-12-02T09:18:44.618Z,13.47
2022-12-02T09:21:15.302Z,13.77
2022-12-02T09:23:50.312Z,13.13
2022-12-02T09:26:18.159Z,12.97
2022-12-02T09:28:48.939Z,12.90
2022-12-02T09:31:19.927Z,13.73
2022-12-02T09:33:50.837Z,14.23
2022-12-02T09:36:21.505Z,14.23
2022-12-02T09:38:52.543Z,12.97
2022-12-02T09:41:23.347Z,13.77
2022-12-02T09:43:54.069Z,13.23
2022-12-02T09:46:26.028Z,13.20
2022-12-02T09:48:56.830Z,14.13
2022-12-02T09:51:27.542Z,13.70
2022-12-02T09:53:58.898Z,13.67
2022-12-02T09:56:30.615Z,12.43
2022-12-02T09:59:01.194Z,14.27
2022-12-02T10:01:31.781Z,14.10
2022-12-02T10:04:02.548Z,14.23
2022-12-02T10:06:33.188Z,14.97
2022-12-02T10:09:04.735Z,13.93
2022-12-02T10:11:36.722Z,14.47
2022-12-02T10:14:07.293Z,15.10
2022-12-02T10:16:39.086Z,15.30
2022-12-02T10:19:11.846Z,14.20
2022-12-02T10:21:42.592Z,13.57
2022-12-02T10:24:13.610Z,13.97
2022-12-02T10:26:50.458Z,13.90
2022-12-02T10:29:23.655Z,13.47
2022-12-02T10:31:59.694Z,13.60
2022-12-02T10:34:32.100Z,14.00
2022-12-02T10:37:18.302Z,14.17
2022-12-02T10:39:48.894Z,15.03
2022-12-02T10:42:21.744Z,14.57
2022-12-02T10:45:11.449Z,14.23
2022-12-02T10:47:42.292Z,13.77
2022-12-02T10:50:20.750Z,14.00
2022-12-02T10:52:53.703Z,13.07
2022-12-02T10:55:25.047Z,13.30
2022-12-02T10:57:56.036Z,13.50
2022-12-02T11:00:28.160Z,13.00
2022-12-02T11:03:00.768Z,12.63
2022-12-02T11:05:33.753Z,12.77
2022-12-02T11:08:07.492Z,14.00
2022-12-02T11:10:40.741Z,12.53
2022-12-02T11:13:34.870Z,12.67
2022-12-02T11:16:52.949Z,13.07
2022-12-02T11:19:43.669Z,13.93
2022-12-02T11:23:10.609Z,12.60
2022-12-02T11:26:08.604Z,13.70
2022-12-02T11:29:21.201Z,12.20
2022-12-02T11:32:07.099Z,13.50
2022-12-02T11:35:18.238Z,12.77
2022-12-02T11:37:43.320Z,12.50
2022-12-02T11:41:05.267Z,12.80
2022-12-02T11:46:52.819Z,12.33
2022-12-02T11:49:30.400Z,12.53
2022-12-02T11:52:28.193Z,12.03
2022-12-02T11:55:20.108Z,12.27
2022-12-02T11:57:52.400Z,11.13
2022-12-02T12:00:30.323Z,12.27
2022-12-02T12:03:15.513Z,11.73
2022-12-02T12:06:06.784Z,12.67
2022-12-02T12:08:38.078Z,11.63
2022-12-02T12:11:21.079Z,12.43
2022-12-02T12:14:06.641Z,11.83
2022-12-02T12:16:39.404Z,12.13
2022-12-02T12:19:28.862Z,11.97
2022-12-02T12:22:00.525Z,11.57
2022-12-02T12:24:33.329Z,11.90
2022-12-02T12:27:16.498Z,12.50
2022-12-02T12:29:47.069Z,12.47
2022-12-02T12:32:17.657Z,11.67
2022-12-02T12:34:48.639Z,13.20
2022-12-02T12:37:19.213Z,12.60
2022-12-02T12:39:49.796Z,13.17
2022-12-02T12:42:20.891Z,12.83
2022-12-02T12:44:52.736Z,11.73
2022-12-02T12:47:23.784Z,12.90
2022-12-02T12:49:54.410Z,11.33
2022-12-02T12:52:24.999Z,11.67
2022-12-02T12:54:55.663Z,11.43
2022-12-02T12:57:26.581Z,11.80
2022-12-02T12:59:57.270Z,11.30
2022-12-02T13:02:28.017Z,11.47
2022-12-02T13:04:58.940Z,11.80
2022-12-02T13:07:34.347Z,10.60
2022-12-02T13:10:05.144Z,11.00
2022-12-02T13:12:35.809Z,11.73
2022-12-02T13:15:07.795Z,10.90
2022-12-02T13:17:40.198Z,11.53
2022-12-02T13:20:14.397Z,12.03
2022-12-02T13:22:45.891Z,10.37
2022-12-02T13:25:17.743Z,10.53
2022-12-02T13:27:48.961Z,10.50
2022-12-02T13:30:22.623Z,10.43
2022-12-02T13:32:53.878Z,11.73
2022-12-02T13:35:25.510Z,11.00
2022-12-02T13:37:56.237Z,11.30
2022-12-02T13:40:27.535Z,12.60
2022-12-02T13:42:58.573Z,10.63
2022-12-02T13:45:30.440Z,10.97
2022-12-02T13:48:02.115Z,11.43
2022-12-02T13:50:33.062Z,12.33
2022-12-02T13:53:03.813Z,10.53
2022-12-02T13:55:34.447Z,11.33
2022-12-02T13:58:05.034Z,11.23
2022-12-02T14:00:35.693Z,11.33
2022-12-02T14:03:06.508Z,11.80
2022-12-02T14:05:37.192Z,11.30
2022-12-02T14:08:08.262Z,10.93
2022-12-02T14:10:39.084Z,10.77
2022-12-02T14:13:15.823Z,11.70
2022-12-02T14:15:42.285Z,10.57
2022-12-02T14:18:13.828Z,10.97
2022-12-02T14:20:44.957Z,10.93
2022-12-02T14:23:16.006Z,10.87
2022-12-02T14:25:46.633Z,10.87
2022-12-02T14:28:17.275Z,10.37
2022-12-02T14:30:47.969Z,10.50
2022-12-02T14:33:18.592Z,10.50
2022-12-02T14:35:50.546Z,10.90
2022-12-02T14:38:21.293Z,10.53
2022-12-02T14:40:51.853Z,10.63
2022-12-02T14:43:23.183Z,10.03
2022-12-02T14:45:53.850Z,10.37
2022-12-02T14:48:28.134Z,10.60
2022-12-02T14:50:56.995Z,10.30
2022-12-02T14:53:27.556Z,11.63
2022-12-02T14:55:58.239Z,11.57
2022-12-02T14:58:28.822Z,11.80
2022-12-02T15:00:59.457Z,10.93
2022-12-02T15:03:30.030Z,11.50
2022-12-02T15:06:00.667Z,10.43
2022-12-02T15:08:31.372Z,11.63
2022-12-02T15:11:01.997Z,11.03
2022-12-02T15:13:32.545Z,11.50
2022-12-02T15:16:03.534Z,11.20
2022-12-02T15:18:35.448Z,10.17
2022-12-02T15:21:10.511Z,10.67
2022-12-02T15:23:38.573Z,11.07
2022-12-02T15:26:09.567Z,10.93
2022-12-02T15:28:40.088Z,10.53
2022-12-02T15:31:10.638Z,9.63
2022-12-02T15:33:41.363Z,11.53
2022-12-02T15:36:12.809Z,11.90
2022-12-02T15:38:43.550Z,12.57
2022-12-02T15:41:14.660Z,11.07
2022-12-02T15:43:50.004Z,11.73
2022-12-02T15:46:17.494Z,11.70
2022-12-02T15:48:48.288Z,11.43
2022-12-02T15:51:19.237Z,11.80
2022-12-02T15:53:49.976Z,12.43
2022-12-02T15:56:20.751Z,11.83
2022-12-02T15:58:51.399Z,11.53
2022-12-02T16:01:22.079Z,12.23
2022-12-02T16:03:52.945Z,12.10
2022-12-02T16:06:23.872Z,12.37
2022-12-02T16:08:55.995Z,10.93
2022-12-02T16:11:26.802Z,11.53
2022-12-02T16:13:57.411Z,11.43
2022-12-02T16:16:28.109Z,12.07
2022-12-02T16:18:58.772Z,12.37
2022-12-02T16:21:29.471Z,11.70
2022-12-02T16:24:00.026Z,12.10
2022-12-02T16:26:30.714Z,11.03
2022-12-02T16:29:01.587Z,11.53
2022-12-02T16:31:32.316Z,11.40
2022-12-02T16:34:03.897Z,10.50
2022-12-02T16:36:34.577Z,12.23
2022-12-02T16:39:06.453Z,11.40
2022-12-02T16:41:37.340Z,12.17
2022-12-02T16:44:08.537Z,12.80
2022-12-02T16:46:39.664Z,13.30
2022-12-02T16:49:10.331Z,13.90
2022-12-02T16:51:40.934Z,12.90
2022-12-02T16:54:11.536Z,11.83
2022-12-02T16:56:42.189Z,12.43
2022-12-02T16:59:12.775Z,14.33
2022-12-02T17:01:43.412Z,14.23
2022-12-02T17:04:14.138Z,12.97
2022-12-02T17:06:45.822Z,13.00
2022-12-02T17:09:16.733Z,13.27
2022-12-02T17:11:47.630Z,13.40
2022-12-02T17:14:18.276Z,13.23
2022-12-02T17:16:48.959Z,12.63
2022-12-02T17:19:20.583Z,12.80
2022-12-02T17:21:51.252Z,14.47
2022-12-02T17:24:21.938Z,14.57
2022-12-02T17:26:55.807Z,14.73
2022-12-02T17:29:24.845Z,13.67
2022-12-02T17:31:55.537Z,14.87
2022-12-02T17:34:26.838Z,20.83
2022-12-02T17:36:57.504Z,22.83
2022-12-02T17:39:28.011Z,17.53
2022-12-02T17:41:58.625Z,16.83
2022-12-02T17:44:30.724Z,16.87
2022-12-02T17:47:01.363Z,21.27
2022-12-02T17:49:34.469Z,21.77
2022-12-02T17:52:19.831Z,20.10
2022-12-02T17:54:37.853Z,16.90
2022-12-02T17:57:08.503Z,17.33
2022-12-02T17:59:39.234Z,15.00
2022-12-02T18:02:11.927Z,16.20
2022-12-02T18:04:44.787Z,15.90
2022-12-02T18:07:15.750Z,15.10
2022-12-02T18:09:46.382Z,15.13
2022-12-02T18:12:16.992Z,16.00
2022-12-02T18:14:47.681Z,16.23
2022-12-02T18:17:18.562Z,15.40
2022-12-02T18:19:49.357Z,15.63
2022-12-02T18:22:20.122Z,15.00
2022-12-02T18:27:29.945Z,14.40
2022-12-02T18:30:00.525Z,14.33
2022-12-02T18:32:31.237Z,15.20
2022-12-02T18:35:01.835Z,15.77
2022-12-02T18:37:33.233Z,14.43
2022-12-02T18:41:00.462Z,16.47
2022-12-02T18:43:36.099Z,15.87
2022-12-02T18:46:03.992Z,15.37
2022-12-02T18:48:34.764Z,15.50
2022-12-02T18:51:05.608Z,14.83
2022-12-02T18:53:36.241Z,15.40
2022-12-02T18:56:07.812Z,15.33
2022-12-02T18:58:38.459Z,15.30
2022-12-02T19:01:09.450Z,13.27
2022-12-02T19:03:40.070Z,15.20
2022-12-02T19:06:10.885Z,15.17
2022-12-02T19:08:41.595Z,15.10
2022-12-02T19:11:12.314Z,13.37
2022-12-02T19:13:43.336Z,13.67
2022-12-02T19:16:14.004Z,14.93
2022-12-02T19:18:44.928Z,15.30
2022-12-02T19:21:17.830Z,16.47
2022-12-02T19:23:47.839Z,15.27
2022-12-02T19:26:18.684Z,14.67
2022-12-02T19:28:49.342Z,14.83
2022-12-02T19:31:20.224Z,15.07
2022-12-02T19:33:50.959Z,14.50
2022-12-02T19:36:21.782Z,14.20
2022-12-02T19:38:52.394Z,14.73
2022-12-02T19:41:23.046Z,15.97
2022-12-02T19:43:53.642Z,15.47
2022-12-02T19:46:24.496Z,16.70
2022-12-02T19:48:55.169Z,16.37
2022-12-02T19:51:25.910Z,14.57
2022-12-02T19:53:57.310Z,14.83
2022-12-02T19:56:28.051Z,15.57
2022-12-02T19:58:58.749Z,16.33
2022-12-02T20:01:32.966Z,19.37
2022-12-02T20:04:19.383Z,16.40
2022-12-02T20:06:33.836Z,16.17
2022-12-02T20:09:04.436Z,15.40
2022-12-02T20:11:35.078Z,16.67
2022-12-02T20:14:05.733Z,18.07
2022-12-02T20:19:15.292Z,16.40
2022-12-02T20:21:45.994Z,17.93
2022-12-02T20:24:16.768Z,18.00
2022-12-02T20:26:47.723Z,17.20
2022-12-02T20:29:19.545Z,17.53
2022-12-02T20:31:52.521Z,18.20
2022-12-02T20:34:23.223Z,19.07
2022-12-02T20:36:57.265Z,18.70
2022-12-02T20:39:31.759Z,18.33
2022-12-02T20:42:02.651Z,19.03
2022-12-02T20:44:39.429Z,18.13
2022-12-02T20:47:11.506Z,17.97
2022-12-02T20:49:44.290Z,19.60
2022-12-02T20:52:15.761Z,17.10
2022-12-02T20:54:48.839Z,18.33
2022-12-02T20:57:20.448Z,18.10
2022-12-02T20:59:53.909Z,18.53
2022-12-02T21:05:06.621Z,18.00
2022-12-02T21:07:40.689Z,16.97
2022-12-02T21:10:17.254Z,17.50
2022-12-02T21:13:19.908Z,17.33
2022-12-02T21:15:55.887Z,17.33
2022-12-02T21:18:32.350Z,16.67
2022-12-02T21:23:41.391Z,20.40
2022-12-02T21:28:50.320Z,18.93
2022-12-02T21:31:20.918Z,18.20
2022-12-02T21:33:51.559Z,19.90
2022-12-02T21:36:22.269Z,19.83
2022-12-02T21:38:53.005Z,20.17
2022-12-02T21:41:23.604Z,19.23
2022-12-02T21:46:32.668Z,19.83
2022-12-02T21:51:57.048Z,18.10
2022-12-02T21:57:07.413Z,20.50
2022-12-02T21:59:38.021Z,20.87
2022-12-02T22:04:46.473Z,17.97
2022-12-02T22:09:54.765Z,19.63
2022-12-02T22:12:25.339Z,18.90
2022-12-02T22:17:34.304Z,19.43
2022-12-02T22:22:42.625Z,18.87
2022-12-02T22:25:13.406Z,18.97
2022-12-02T22:27:44.415Z,19.93
2022-12-02T22:32:52.787Z,18.90
2022-12-02T22:35:23.444Z,18.60
2022-12-02T22:37:54.269Z,18.90
2022-12-02T22:40:24.837Z,20.60
2022-12-02T22:42:55.472Z,20.23
2022-12-02T22:45:26.143Z,20.00
2022-12-02T22:47:57.132Z,20.43
2022-12-02T22:50:28.348Z,19.23
2022-12-02T22:52:58.855Z,21.23
2022-12-02T22:55:29.674Z,21.43
2022-12-02T22:58:00.195Z,21.90
2022-12-02T23:00:30.948Z,21.23
2022-12-02T23:03:01.634Z,21.07
2022-12-02T23:05:33.026Z,20.17
2022-12-02T23:08:04.504Z,20.10
2022-12-02T23:10:36.108Z,21.77
2022-12-02T23:13:08.820Z,21.50
2022-12-02T23:15:41.596Z,21.07
2022-12-02T23:18:13.298Z,22.70
2022-12-02T23:20:43.931Z,20.90
2022-12-02T23:23:16.729Z,23.13
2022-12-02T23:25:47.400Z,21.93
2022-12-02T23:28:18.876Z,22.53
2022-12-02T23:30:49.630Z,21.30
2022-12-02T23:33:20.311Z,21.50
2022-12-02T23:35:50.952Z,22.23
2022-12-02T23:38:21.527Z,22.93
2022-12-02T23:40:52.016Z,23.03
2022-12-02T23:43:22.616Z,22.83
2022-12-02T23:45:53.659Z,22.57
2022-12-02T23:48:24.300Z,24.37
2022-12-02T23:50:54.916Z,23.03
2022-12-02T23:53:25.438Z,22.37
2022-12-02T23:55:56.383Z,24.57
2022-12-02T23:58:26.928Z,23.53
